createdAt,value
2023-05-10T00:05:21.355Z,8.16
2023-05-10T00:10:43.744Z,8.00
2023-05-10T00:16:06.028Z,7.79
2023-05-10T00:21:29.718Z,7.84
2023-05-10T00:26:51.974Z,7.77
2023-05-10T00:32:15.183Z,7.61
2023-05-10T00:37:37.616Z,7.48
2023-05-10T00:43:01.772Z,7.35
2023-05-10T00:48:24.385Z,7.27
2023-05-10T00:53:48.175Z,7.18
2023-05-10T00:59:10.615Z,7.06
2023-05-10T01:04:33.836Z,7.00
2023-05-10T01:09:56.795Z,7.03
2023-05-10T01:15:22.030Z,7.07
2023-05-10T01:20:47.709Z,7.13
2023-05-10T01:26:50.058Z,7.21
2023-05-10T01:32:35.524Z,7.06
2023-05-10T01:38:02.697Z,6.93
2023-05-10T01:43:30.178Z,6.85
2023-05-10T01:49:02.261Z,6.74
2023-05-10T01:54:27.512Z,6.69
2023-05-10T01:59:53.021Z,6.60
2023-05-10T02:05:16.865Z,6.49
2023-05-10T02:10:42.549Z,6.37
2023-05-10T02:16:10.635Z,6.37
2023-05-10T02:21:34.962Z,6.21
2023-05-10T02:26:59.361Z,6.20
2023-05-10T02:32:23.946Z,6.12
2023-05-10T02:37:47.809Z,6.05
2023-05-10T02:43:13.225Z,5.97
2023-05-10T02:48:35.830Z,5.96
2023-05-10T02:54:01.383Z,5.94
2023-05-10T02:59:23.643Z,5.83
2023-05-10T03:04:46.100Z,5.75
2023-05-10T03:10:08.973Z,5.81
2023-05-10T03:15:36.121Z,6.09
2023-05-10T03:26:41.037Z,6.31
2023-05-10T03:32:03.420Z,6.25
2023-05-10T03:37:25.669Z,6.24
2023-05-10T03:42:47.919Z,6.31
2023-05-10T03:48:10.990Z,6.40
2023-05-10T03:53:33.638Z,6.57
2023-05-10T03:58:56.095Z,6.71
2023-05-10T04:04:20.029Z,6.88
2023-05-10T04:09:42.630Z,7.06
2023-05-10T04:15:04.942Z,7.21
2023-05-10T04:20:27.703Z,7.36
2023-05-10T04:25:50.578Z,7.56
2023-05-10T04:31:18.657Z,7.66
2023-05-10T04:36:41.008Z,7.79
2023-05-10T04:42:04.129Z,7.89
2023-05-10T04:47:27.361Z,8.14
2023-05-10T04:52:49.671Z,8.35
2023-05-10T04:58:11.964Z,8.48
2023-05-10T05:03:34.841Z,8.56
2023-05-10T05:08:57.292Z,8.70
2023-05-10T05:14:21.229Z,8.79
2023-05-10T05:19:44.764Z,8.96
2023-05-10T05:25:08.592Z,9.08
2023-05-10T05:30:31.026Z,9.21
2023-05-10T05:35:55.821Z,9.42
2023-05-10T05:41:18.418Z,9.71
2023-05-10T05:46:40.727Z,9.86
2023-05-10T05:52:04.765Z,10.14
2023-05-10T05:57:27.886Z,10.40
2023-05-10T06:02:50.263Z,10.62
2023-05-10T06:08:13.520Z,10.91
2023-05-10T06:13:36.675Z,11.17
2023-05-10T06:18:59.017Z,11.42
2023-05-10T06:24:21.356Z,11.63
2023-05-10T06:29:43.686Z,11.90
2023-05-10T06:35:05.950Z,12.16
2023-05-10T06:40:28.752Z,12.38
2023-05-10T06:45:51.076Z,12.63
2023-05-10T06:51:13.370Z,12.83
2023-05-10T06:56:35.780Z,13.11
2023-05-10T07:01:58.162Z,13.36
2023-05-10T07:07:21.292Z,13.54
2023-05-10T07:12:44.578Z,13.63
2023-05-10T07:18:07.920Z,13.84
2023-05-10T07:23:31.246Z,13.98
2023-05-10T07:28:53.681Z,14.16
2023-05-10T07:34:16.710Z,14.44
2023-05-10T07:39:39.827Z,14.56
2023-05-10T07:45:02.271Z,14.72
2023-05-10T07:50:25.556Z,14.84
2023-05-10T07:55:48.090Z,14.84
2023-05-10T08:01:10.724Z,14.87
2023-05-10T08:06:34.685Z,15.13
2023-05-10T08:11:57.913Z,15.39
2023-05-10T08:17:22.127Z,15.26
2023-05-10T08:22:44.728Z,15.36
2023-05-10T08:28:07.220Z,15.38
2023-05-10T08:33:32.092Z,15.58
2023-05-10T08:38:54.968Z,15.98
2023-05-10T08:44:19.765Z,15.90
2023-05-10T08:49:44.412Z,15.99
2023-05-10T08:55:07.447Z,16.17
2023-05-10T09:00:32.041Z,16.22
2023-05-10T09:05:59.726Z,16.34
2023-05-10T09:11:22.989Z,16.48
2023-05-10T09:16:47.991Z,16.68
2023-05-10T09:22:10.324Z,16.95
2023-05-10T09:27:34.710Z,16.80
2023-05-10T09:33:01.971Z,17.10
2023-05-10T09:38:24.936Z,17.15
2023-05-10T09:43:48.780Z,17.25
2023-05-10T09:49:12.871Z,17.86
2023-05-10T09:54:36.419Z,17.79
2023-05-10T10:00:01.021Z,18.49
2023-05-10T10:05:25.308Z,18.95
2023-05-10T10:10:48.693Z,19.50
2023-05-10T10:16:12.105Z,19.06
2023-05-10T10:21:35.856Z,19.24
2023-05-10T10:27:00.351Z,18.91
2023-05-10T10:32:55.828Z,18.89
2023-05-10T10:38:20.339Z,18.66
2023-05-10T10:43:43.549Z,19.72
2023-05-10T10:49:24.531Z,19.37
2023-05-10T10:54:49.066Z,19.43
2023-05-10T11:00:36.830Z,19.58
2023-05-10T11:06:03.313Z,19.62
2023-05-10T11:11:28.657Z,19.07
2023-05-10T11:16:56.439Z,18.80
2023-05-10T11:22:27.525Z,19.30
2023-05-10T11:27:51.308Z,19.93
2023-05-10T11:33:14.028Z,20.67
2023-05-10T11:38:36.817Z,19.81
2023-05-10T11:44:01.110Z,19.49
2023-05-10T11:49:25.038Z,20.11
2023-05-10T11:54:55.103Z,19.73
2023-05-10T12:00:19.456Z,20.27
2023-05-10T12:05:44.346Z,20.61
2023-05-10T12:11:15.639Z,20.73
2023-05-10T12:16:41.254Z,20.36
2023-05-10T12:22:03.976Z,20.39
2023-05-10T12:33:12.311Z,20.98
2023-05-10T12:38:54.084Z,20.44
2023-05-10T12:44:16.387Z,20.24
2023-05-10T12:49:38.988Z,20.99
2023-05-10T12:55:01.799Z,20.27
2023-05-10T13:00:25.415Z,21.19
2023-05-10T13:05:47.927Z,21.24
2023-05-10T13:11:11.037Z,21.07
2023-05-10T13:16:33.605Z,20.04
2023-05-10T13:21:56.574Z,20.41
2023-05-10T13:27:19.598Z,20.60
2023-05-10T13:32:42.339Z,20.41
2023-05-10T13:38:04.902Z,21.40
2023-05-10T13:43:27.863Z,21.25
2023-05-10T13:48:51.119Z,21.20
2023-05-10T13:54:13.812Z,21.44
2023-05-10T13:59:36.912Z,21.84
2023-05-10T14:05:02.790Z,21.67
2023-05-10T14:10:27.184Z,22.03
2023-05-10T14:15:49.669Z,21.48
2023-05-10T14:21:12.124Z,21.53
2023-05-10T14:26:35.508Z,22.21
2023-05-10T14:31:57.915Z,22.28
2023-05-10T14:37:21.288Z,21.64
2023-05-10T14:42:44.839Z,21.61
2023-05-10T14:48:09.436Z,22.02
2023-05-10T14:53:32.150Z,22.20
2023-05-10T14:58:55.826Z,21.57
2023-05-10T15:04:19.163Z,21.82
2023-05-10T15:09:42.322Z,21.39
2023-05-10T15:15:05.129Z,22.28
2023-05-10T15:20:28.077Z,22.97
2023-05-10T15:25:52.045Z,22.17
2023-05-10T15:31:14.849Z,22.13
2023-05-10T15:36:37.378Z,22.18
2023-05-10T15:42:00.248Z,22.30
2023-05-10T15:47:22.644Z,22.42
2023-05-10T15:52:45.553Z,22.01
2023-05-10T15:58:08.013Z,22.26
2023-05-10T16:03:31.177Z,21.53
2023-05-10T16:08:54.668Z,22.15
2023-05-10T16:14:17.682Z,21.83
2023-05-10T16:19:40.075Z,21.63
2023-05-10T16:25:04.506Z,21.71
2023-05-10T16:30:29.318Z,22.08
2023-05-10T16:35:51.926Z,21.39
2023-05-10T16:41:17.677Z,21.36
2023-05-10T16:46:41.274Z,21.59
2023-05-10T16:52:03.634Z,21.39
2023-05-10T16:57:26.049Z,20.83
2023-05-10T17:02:49.643Z,20.51
2023-05-10T17:08:12.748Z,20.78
2023-05-10T17:13:35.883Z,21.03
2023-05-10T17:19:01.375Z,20.60
2023-05-10T17:24:24.103Z,20.34
2023-05-10T17:29:46.444Z,19.89
2023-05-10T17:35:09.245Z,19.89
2023-05-10T17:40:32.348Z,19.38
2023-05-10T17:45:56.385Z,19.33
2023-05-10T17:51:18.952Z,18.55
2023-05-10T17:56:41.361Z,18.06
2023-05-10T18:02:03.802Z,17.41
2023-05-10T18:07:28.692Z,17.03
2023-05-10T18:12:54.027Z,16.64
2023-05-10T18:18:17.746Z,16.30
2023-05-10T18:23:40.140Z,16.10
2023-05-10T18:29:02.862Z,15.94
2023-05-10T18:34:25.713Z,15.68
2023-05-10T18:39:51.366Z,15.52
2023-05-10T18:45:14.558Z,15.32
2023-05-10T18:50:37.023Z,15.16
2023-05-10T18:56:02.576Z,14.87
2023-05-10T19:01:24.863Z,14.79
2023-05-10T19:06:47.748Z,14.67
2023-05-10T19:12:10.584Z,14.49
2023-05-10T19:17:34.329Z,14.36
2023-05-10T19:23:09.253Z,14.26
2023-05-10T19:28:21.570Z,14.02
2023-05-10T19:33:43.936Z,13.89
2023-05-10T19:39:06.301Z,13.66
2023-05-10T19:44:29.560Z,13.43
2023-05-10T19:49:51.997Z,13.32
2023-05-10T19:55:15.152Z,13.44
2023-05-10T20:00:38.317Z,13.35
2023-05-10T20:06:00.777Z,13.39
2023-05-10T20:11:23.773Z,13.34
2023-05-10T20:16:46.350Z,13.20
2023-05-10T20:22:09.900Z,13.09
2023-05-10T20:27:32.859Z,13.07
2023-05-10T20:32:55.328Z,12.93
2023-05-10T20:38:18.422Z,12.84
2023-05-10T20:43:40.761Z,12.79
2023-05-10T20:49:03.686Z,12.83
2023-05-10T20:54:27.649Z,12.73
2023-05-10T20:59:50.257Z,12.66
2023-05-10T21:05:12.836Z,12.56
2023-05-10T21:10:35.175Z,12.49
2023-05-10T21:15:57.539Z,12.45
2023-05-10T21:21:19.836Z,12.49
2023-05-10T21:26:42.771Z,12.33
2023-05-10T21:32:05.081Z,12.26
2023-05-10T21:37:28.257Z,12.17
2023-05-10T21:42:50.778Z,12.01
2023-05-10T21:48:13.674Z,11.93
2023-05-10T21:53:36.082Z,11.86
2023-05-10T21:58:58.400Z,11.72
2023-05-10T22:04:21.043Z,11.62
2023-05-10T22:09:44.391Z,11.61
2023-05-10T22:15:10.269Z,11.52
2023-05-10T22:20:30.974Z,11.45
2023-05-10T22:25:53.265Z,11.31
2023-05-10T22:31:16.583Z,11.19
2023-05-10T22:36:39.029Z,11.04
2023-05-10T22:42:01.375Z,10.93
2023-05-10T22:47:23.773Z,10.86
2023-05-10T22:52:47.192Z,10.91
2023-05-10T22:58:09.698Z,10.99
2023-05-10T23:03:31.923Z,11.00
2023-05-10T23:08:54.468Z,10.82
2023-05-10T23:14:17.261Z,10.81
2023-05-10T23:19:39.574Z,10.70
2023-05-10T23:25:01.924Z,10.60
2023-05-10T23:30:24.915Z,10.60
2023-05-10T23:35:47.228Z,10.58
2023-05-10T23:41:09.601Z,10.46
2023-05-10T23:46:32.016Z,10.24
2023-05-10T23:51:54.472Z,10.18
2023-05-10T23:57:16.840Z,10.04
